Northeast Philadelphia Airport
KPNE : now visible

Aeroporto :











RITROVATECI SU...

 
LOGIN :

Iscrizione | Disclaimer

   EN    FR    IT 

 









Sommario :    VFR   VFR Marginale   IFR   IFR Intensivo   IFR Molto Intensivo
Visibilità : 
Base nubi : 
>= 8 km
>= 3000ft
5 / 8 km
1000 / 3000 ft
1500m / 5 km
500 / 1000 ft
800 / 1500m
200 / 500 ft
< 800m
< 200 ft
Simboli :   Temporali  Nebbia  Neve Forte  Precipitazioni Forti  Vento > 20 kt






- Altitudine del aeroporto : 120 ft


KPNE - Northeast Philadelphia

ULTIMO METAR :
  • 250854Z AUTO 08011KT 10SM OVC011 07/03 A3008 RMK AO2 SLP188 T00670033 56029

METARs OBSOLETI :
  • 250826Z AUTO 07013KT 10SM BKN013 OVC019 07/03 A3010 RMK AO2 T00670033
  • 250754Z AUTO 07013KT 9SM OVC020 06/03 A3011 RMK AO2 SLP194 T00610033
  • 250707Z AUTO 07013KT 6SM HZ BKN021 OVC070 06/03 A3014 RMK AO2 T00560028
  • 250654Z AUTO 07010G17KT 6SM HZ FEW021 BKN075 06/03 A3015 RMK AO2 SLP209 T00560028

TAF KPNE
Valido dal 25 a 07 ore il 26 a 06 ore UTC


250711Z 2507/2606 07013KT P6SM BKN020 OVC070
FM251000 08012KT 5SM -RA OVC012
FM251200 08014KT 2SM RA OVC008 WS020/11045KT
FM251500 09012KT 1SM +RA OVC003 WS020/11045KT
FM252100 26010KT 5SM BR BKN010
FM260100 30005KT P6SM BKN060



MetMap, La meteo Aeronautica in un colpo d'occhio ! - Copyright ORBIFLY Dicembre 2007 - Disclaimer

ORBIFLY MET'MAP TEAM :

Programmazione e sviluppo : Alexandra Zaïnal
Concezione : Baudouin d'Aumeries
Aiuto per la programmazione : Marc-Olivier Méhu
Supporto tecnico e logistico : Manuel Goepfert
Aiuto per la traduzione : Arnaldo La Scala

Contatto : metmap@orbifly.com




FONTI E CREDITI :

   NOAA       Earth
Advisory